Time;durP1;ratioP1;P1;durP2;ratioP2;P2;SDS_P1;SDS_P2;PMS_P1;PMS_P2;Temp;Humidity;BMP_temperature;BMP_pressure;BME280_temperature;BME280_humidity;BME280_pressure;Samples;Min_cycle;Max_cycle;Signal;HPM_P1;HPM_P2
2023/09/14 00:01:00;;;;;;;4.95;2.85;;;14.80;99.90;;;14.18;100.00;101782.19;4184954;28;20051;-73
2023/09/14 00:03:02;;;;;;;4.82;2.10;;;14.80;99.90;;;14.15;100.00;101779.84;4199234;28;20029;-73
2023/09/14 00:05:04;;;;;;;4.82;2.50;;;14.70;99.90;;;14.15;100.00;101782.50;4185025;28;20103;-73
2023/09/14 00:07:05;;;;;;;5.40;2.85;;;14.70;99.90;;;14.12;100.00;101781.97;4184857;28;20087;-73
2023/09/14 00:09:06;;;;;;;3.70;2.35;;;14.70;99.90;;;14.08;100.00;101778.78;4195999;28;20025;-73
2023/09/14 00:11:07;;;;;;;5.30;2.33;;;14.70;99.90;;;14.07;100.00;101785.06;4183580;28;20111;-73
2023/09/14 00:13:09;;;;;;;5.97;2.38;;;14.60;99.90;;;14.02;100.00;101775.91;4190604;28;20020;-73
2023/09/14 00:15:10;;;;;;;5.97;2.85;;;14.60;99.90;;;14.02;100.00;101779.41;4174302;28;20033;-73
2023/09/14 00:17:11;;;;;;;4.70;2.67;;;14.60;99.90;;;13.99;100.00;101777.03;4184787;28;20570;-73
2023/09/14 00:19:12;;;;;;;4.25;2.78;;;14.60;99.90;;;14.00;100.00;101776.06;4198983;28;20029;-73
2023/09/14 00:21:13;;;;;;;6.82;3.17;;;14.60;99.90;;;13.96;100.00;101777.34;4201575;28;20036;-73
2023/09/14 00:23:14;;;;;;;5.30;3.40;;;14.50;99.90;;;13.98;100.00;101772.72;4191939;28;20025;-73
2023/09/14 00:25:15;;;;;;;6.90;3.17;;;14.50;99.90;;;13.94;100.00;101765.22;4183648;28;20385;-73
2023/09/14 00:27:15;;;;;;;4.93;2.75;;;14.50;99.90;;;13.94;100.00;101770.53;4199628;28;20054;-73
2023/09/14 00:29:16;;;;;;;6.63;2.72;;;14.50;99.90;;;13.91;100.00;101766.38;4198533;28;20021;-73
2023/09/14 00:31:17;;;;;;;5.45;2.70;;;14.50;99.90;;;13.87;100.00;101762.34;4193203;28;20025;-74
2023/09/14 00:33:18;;;;;;;6.40;2.60;;;14.40;99.90;;;13.81;100.00;101752.34;4184627;28;20055;-73
2023/09/14 00:35:19;;;;;;;7.50;3.42;;;14.40;99.90;;;13.82;100.00;101767.28;4197925;28;20111;-73
2023/09/14 00:37:20;;;;;;;5.32;3.00;;;14.40;99.90;;;13.76;100.00;101773.19;4195672;28;20067;-73
2023/09/14 00:39:21;;;;;;;7.07;2.65;;;14.40;99.90;;;13.70;100.00;101757.88;4192505;28;20023;-73
2023/09/14 00:41:22;;;;;;;5.65;3.00;;;14.30;99.90;;;13.71;100.00;101773.63;4191529;28;20021;-73
2023/09/14 00:43:23;;;;;;;5.05;2.63;;;14.30;99.90;;;13.65;100.00;101765.47;4188977;28;20036;-73
2023/09/14 00:45:24;;;;;;;5.88;2.78;;;14.30;99.90;;;13.66;100.00;101767.13;4198278;28;20032;-73
2023/09/14 00:47:24;;;;;;;5.43;3.00;;;14.20;99.90;;;13.61;100.00;101770.25;4187832;28;20025;-73
2023/09/14 00:49:26;;;;;;;9.65;3.00;;;14.20;99.90;;;13.61;100.00;101764.94;4197417;28;20024;-73
2023/09/14 00:51:29;;;;;;;4.65;2.55;;;14.20;99.90;;;13.55;100.00;101756.75;4188345;28;20036;-73
2023/09/14 00:53:30;;;;;;;4.75;2.97;;;14.20;99.90;;;13.55;100.00;101764.69;4186377;28;20444;-73
2023/09/14 00:55:31;;;;;;;7.00;2.63;;;14.10;99.90;;;13.53;100.00;101764.03;4187456;28;20025;-73
2023/09/14 00:57:33;;;;;;;4.53;3.03;;;14.10;99.90;;;13.50;100.00;101759.03;4197070;28;20016;-73
2023/09/14 00:59:34;;;;;;;6.30;3.55;;;14.10;99.90;;;13.48;100.00;101753.84;4190471;28;20407;-73
2023/09/14 01:01:36;;;;;;;6.53;3.22;;;14.10;99.90;;;13.46;100.00;101760.28;4186138;28;20028;-73
2023/09/14 01:03:37;;;;;;;7.95;3.70;;;14.10;99.90;;;13.43;100.00;101744.69;4186222;28;20474;-73
2023/09/14 01:05:40;;;;;;;2.83;2.58;;;14.00;99.90;;;13.41;100.00;101751.97;4200448;28;20020;-73
2023/09/14 01:07:41;;;;;;;4.75;1.98;;;14.00;99.90;;;13.38;100.00;101752.25;4185963;28;20044;-73
2023/09/14 01:09:42;;;;;;;3.65;2.05;;;14.00;99.90;;;13.33;100.00;101750.03;4198661;28;20056;-73
2023/09/14 01:11:43;;;;;;;3.70;2.20;;;14.00;99.90;;;13.30;100.00;101755.66;4187257;28;20033;-73
2023/09/14 01:14:11;;;;;;;5.03;2.33;;;13.90;99.90;;;13.29;100.00;101749.50;4196050;28;20032;-73
2023/09/14 01:16:46;;;;;;;5.03;2.88;;;13.90;99.90;;;13.26;100.00;101749.81;4187187;28;20031;-73
2023/09/14 01:18:59;;;;;;;;;;;13.80;99.90;;;13.22;100.00;101747.63;4195447;28;20129;-73
2023/09/14 01:21:18;;;;;;;4.97;3.10;;;13.80;99.90;;;13.25;100.00;101745.50;4188630;28;19936;-73
2023/09/14 01:23:37;;;;;;;6.70;3.22;;;13.90;99.90;;;13.27;100.00;101750.63;4185957;28;20021;-73
2023/09/14 01:25:43;;;;;;;6.45;3.33;;;13.80;99.90;;;13.27;100.00;101750.63;4188489;28;20021;-73
2023/09/14 01:27:44;;;;;;;8.73;3.58;;;13.80;99.90;;;13.29;100.00;101753.97;4196620;28;20025;-73
2023/09/14 01:29:45;;;;;;;8.13;3.40;;;13.90;99.90;;;13.27;100.00;101748.00;4193123;28;20025;-73
2023/09/14 01:31:46;;;;;;;7.57;3.83;;;13.80;99.90;;;13.27;100.00;101751.47;4190042;28;20060;-73
2023/09/14 01:33:48;;;;;;;6.35;2.95;;;13.80;99.90;;;13.27;100.00;101756.78;4186626;28;20491;-73
2023/09/14 01:36:05;;;;;;;4.38;2.90;;;13.80;99.90;;;13.26;100.00;101754.28;4195002;28;20035;-73
2023/09/14 01:38:07;;;;;;;5.57;3.17;;;13.80;99.90;;;13.22;100.00;101750.25;4191206;28;20044;-73
2023/09/14 01:40:09;;;;;;;4.05;3.05;;;13.80;99.90;;;13.22;100.00;101748.47;4194583;28;20074;-73
2023/09/14 01:42:11;;;;;;;7.25;2.97;;;13.80;99.90;;;13.21;100.00;101752.06;4195555;28;20028;-73
2023/09/14 01:44:13;;;;;;;6.07;3.47;;;13.80;99.90;;;13.22;100.00;101747.63;4185287;28;20108;-73
2023/09/14 01:46:14;;;;;;;6.10;3.53;;;13.80;99.90;;;13.22;100.00;101752.91;4185429;28;20116;-73
2023/09/14 01:48:17;;;;;;;8.73;3.70;;;13.80;99.90;;;13.18;100.00;101748.88;4199934;28;20032;-73
2023/09/14 01:50:18;;;;;;;5.77;3.53;;;13.80;99.90;;;13.17;100.00;101750.69;4197216;28;20483;-73
2023/09/14 01:52:19;;;;;;;6.22;3.13;;;13.80;99.90;;;13.18;100.00;101755.03;4185475;28;20037;-73
2023/09/14 01:54:20;;;;;;;7.45;3.75;;;13.70;99.90;;;13.18;100.00;101746.22;4186444;28;20040;-73
2023/09/14 01:56:21;;;;;;;7.53;3.70;;;13.80;99.90;;;13.17;100.00;101742.75;4199524;28;20055;-73
2023/09/14 01:58:22;;;;;;;7.47;3.53;;;13.80;99.90;;;13.17;100.00;101742.75;4186536;28;20029;-73
2023/09/14 02:00:25;;;;;;;7.47;3.58;;;13.70;99.90;;;13.16;100.00;101746.41;4188696;28;20017;-73
2023/09/14 02:02:27;;;;;;;8.80;3.22;;;13.70;99.90;;;13.13;100.00;101746.69;4186388;28;20033;-73
2023/09/14 02:04:27;;;;;;;5.43;3.30;;;13.70;99.90;;;13.14;100.00;101748.34;4199391;28;20056;-73
2023/09/14 02:06:28;;;;;;;7.97;3.85;;;13.70;99.90;;;13.11;100.00;101740.69;4201468;28;20036;-73
2023/09/14 02:08:30;;;;;;;5.15;2.92;;;13.70;99.90;;;13.09;100.00;101750.59;4192637;28;20084;-73
2023/09/14 02:10:31;;;;;;;5.60;3.53;;;13.70;99.90;;;13.07;100.00;101744.59;4187563;28;20404;-73
2023/09/14 02:12:32;;;;;;;3.85;3.38;;;13.60;99.90;;;13.05;100.00;101745.72;4186268;28;20025;-73
2023/09/14 02:14:33;;;;;;;4.70;3.00;;;13.60;99.90;;;13.03;100.00;101742.38;4185919;28;20036;-73
2023/09/14 02:16:34;;;;;;;7.60;3.60;;;13.60;99.90;;;13.01;100.00;101742.53;4186326;28;20040;-73
2023/09/14 02:18:35;;;;;;;6.85;3.50;;;13.60;99.90;;;12.98;100.00;101736.69;4195464;28;20025;-73
2023/09/14 02:20:36;;;;;;;6.25;3.33;;;13.60;99.90;;;12.98;100.00;101739.34;4196874;28;20025;-73
2023/09/14 02:22:37;;;;;;;10.80;4.47;;;13.60;99.90;;;12.98;100.00;101742.00;4189870;28;20442;-73
2023/09/14 02:24:38;;;;;;;8.35;4.07;;;13.50;99.90;;;12.95;100.00;101742.28;4202893;28;20032;-73
2023/09/14 02:26:38;;;;;;;9.98;4.03;;;13.50;99.90;;;12.89;100.00;101727.81;4191243;28;20120;-73
2023/09/14 02:28:39;;;;;;;5.57;3.40;;;13.50;99.90;;;12.94;100.00;101740.59;4185736;28;20044;-73
2023/09/14 02:30:41;;;;;;;5.85;2.92;;;13.50;99.90;;;12.92;100.00;101737.28;4200924;28;20028;-73
2023/09/14 02:32:42;;;;;;;7.20;3.65;;;13.50;99.90;;;12.92;100.00;101745.22;4194827;28;20032;-73
2023/09/14 02:34:43;;;;;;;6.30;3.70;;;13.50;99.90;;;12.91;100.00;101739.09;4194123;28;20044;-73
2023/09/14 02:36:43;;;;;;;6.07;3.67;;;13.50;99.90;;;12.89;100.00;101742.88;4189419;28;20021;-73
2023/09/14 02:38:45;;;;;;;8.45;4.30;;;13.50;99.90;;;12.87;100.00;101735.09;4200469;28;20036;-73
2023/09/14 02:40:46;;;;;;;5.55;3.60;;;13.50;99.90;;;12.87;100.00;101740.38;4192305;28;20017;-73
2023/09/14 02:42:47;;;;;;;5.00;3.60;;;13.50;99.90;;;12.86;100.00;101740.53;4195521;28;20035;-73
2023/09/14 02:44:48;;;;;;;6.32;3.75;;;13.50;99.90;;;12.88;100.00;101738.56;4200822;28;20024;-73
2023/09/14 02:46:49;;;;;;;6.18;3.45;;;13.40;99.90;;;12.85;100.00;101739.69;4201024;28;20047;-73
2023/09/14 02:48:50;;;;;;;6.72;4.07;;;13.40;99.90;;;12.83;100.00;101732.88;4201072;28;20028;-73
2023/09/14 02:50:51;;;;;;;8.23;4.82;;;13.40;99.90;;;12.81;100.00;101740.97;4191607;28;20048;-73
2023/09/14 02:52:52;;;;;;;7.18;4.20;;;13.40;99.90;;;12.78;100.00;101741.25;4185379;28;20029;-73
2023/09/14 02:54:53;;;;;;;5.97;3.60;;;13.40;99.90;;;12.71;100.00;101729.56;4200180;28;20028;-73
2023/09/14 02:56:54;;;;;;;6.57;4.40;;;13.40;99.90;;;12.75;100.00;101745.00;4185668;28;20025;-73
2023/09/14 02:58:55;;;;;;;5.47;3.90;;;13.40;99.90;;;12.74;100.00;101737.22;4185352;28;20083;-73
2023/09/14 03:00:56;;;;;;;12.10;4.28;;;13.30;99.90;;;12.72;100.00;101736.56;4187863;28;20029;-73
2023/09/14 03:02:57;;;;;;;7.05;3.95;;;13.30;99.90;;;12.68;100.00;101736.00;4199569;28;20035;-73
2023/09/14 03:04:58;;;;;;;6.38;3.53;;;13.30;99.90;;;12.70;100.00;101738.50;4184327;28;20033;-73
2023/09/14 03:06:59;;;;;;;6.40;3.88;;;13.30;99.90;;;12.67;100.00;101733.47;4190928;28;20020;-73
2023/09/14 03:09:00;;;;;;;7.25;3.70;;;13.30;99.90;;;12.66;100.00;101731.84;4201972;28;20037;-73
2023/09/14 03:11:01;;;;;;;6.45;4.20;;;13.30;99.90;;;12.65;100.00;101736.28;4186552;28;20055;-73
2023/09/14 03:13:02;;;;;;;8.00;4.40;;;13.30;99.90;;;12.63;100.00;101732.13;4185312;28;20033;-73
2023/09/14 03:15:03;;;;;;;7.97;4.55;;;13.20;99.90;;;12.62;100.00;101728.63;4185111;28;20025;-73
2023/09/14 03:17:04;;;;;;;5.63;4.43;;;13.20;99.90;;;12.62;100.00;101723.34;4196203;28;20487;-73
2023/09/14 03:19:05;;;;;;;8.43;4.30;;;13.20;99.90;;;12.63;100.00;101734.78;4185159;28;20086;-73
2023/09/14 03:21:20;;;;;;;10.70;4.28;;;13.20;99.90;;;12.65;100.00;101732.81;4196007;28;20053;-73
2023/09/14 03:23:22;;;;;;;8.05;5.18;;;13.20;99.90;;;12.62;100.00;101728.63;4192914;28;20040;-73
2023/09/14 03:25:23;;;;;;;13.10;5.03;;;13.20;99.90;;;12.63;100.00;101729.47;4183939;28;20113;-73
2023/09/14 03:27:24;;;;;;;11.90;4.70;;;13.20;99.90;;;12.64;100.00;101729.31;4187913;28;20512;-73
2023/09/14 03:29:25;;;;;;;8.68;4.55;;;13.20;99.90;;;12.66;100.00;101734.47;4186875;28;20028;-73
2023/09/14 03:31:25;;;;;;;9.13;4.18;;;13.20;99.90;;;12.64;100.00;101731.97;4190245;28;20037;-73
2023/09/14 03:33:27;;;;;;;7.20;4.78;;;13.20;99.90;;;12.61;100.00;101732.25;4188945;28;20480;-73
2023/09/14 03:35:28;;;;;;;8.50;4.43;;;13.20;99.90;;;12.59;100.00;101726.28;4190520;28;20029;-73
2023/09/14 03:37:28;;;;;;;7.35;5.13;;;13.20;99.90;;;12.57;100.00;101730.06;4201713;28;20361;-73
2023/09/14 03:39:29;;;;;;;6.30;4.43;;;13.20;99.90;;;12.55;100.00;101722.25;4200289;28;20028;-73
2023/09/14 03:41:30;;;;;;;9.23;4.43;;;13.20;99.90;;;12.55;100.00;101724.06;4188647;28;20021;-73
2023/09/14 03:43:31;;;;;;;9.45;5.00;;;13.10;99.90;;;12.53;100.00;101723.38;4187392;28;20029;-73
2023/09/14 03:45:32;;;;;;;6.32;4.38;;;13.10;99.90;;;12.52;100.00;101719.06;4195352;28;20064;-73
2023/09/14 03:47:33;;;;;;;8.93;4.82;;;13.10;99.90;;;12.48;100.00;101717.69;4200296;28;20032;-73
2023/09/14 03:49:34;;;;;;;7.28;4.53;;;13.10;99.90;;;12.48;100.00;101715.88;4185096;28;20075;-73
2023/09/14 03:51:35;;;;;;;9.55;4.65;;;13.10;99.90;;;12.41;100.00;101708.66;4199319;28;20040;-73
2023/09/14 03:53:36;;;;;;;7.30;4.28;;;13.00;99.90;;;12.44;100.00;101714.50;4183867;28;20451;-73
2023/09/14 03:55:37;;;;;;;10.63;5.15;;;13.00;99.90;;;12.41;100.00;101712.13;4192406;28;20055;-73
2023/09/14 03:57:38;;;;;;;8.88;4.95;;;13.00;99.90;;;12.39;100.00;101694.75;4201557;28;20073;-73
2023/09/14 03:59:39;;;;;;;6.70;4.82;;;13.00;99.90;;;12.40;100.00;101709.63;4190368;28;20032;-73
2023/09/14 04:01:40;;;;;;;9.82;5.13;;;13.00;99.90;;;12.38;100.00;101708.94;4184749;28;20024;-73
2023/09/14 04:03:40;;;;;;;11.05;5.13;;;13.00;99.90;;;12.38;100.00;101715.06;4192247;28;20040;-73
2023/09/14 04:05:41;;;;;;;7.03;4.05;;;13.00;99.90;;;12.38;100.00;101703.66;4184874;28;20029;-73
2023/09/14 04:07:44;;;;;;;11.35;4.82;;;13.00;99.90;;;12.33;100.00;101705.91;4184772;28;20037;-73
2023/09/14 04:09:45;;;;;;;10.38;4.85;;;13.00;99.90;;;12.32;100.00;101701.56;4188763;28;20025;-73
2023/09/14 04:11:46;;;;;;;10.68;5.30;;;12.90;99.90;;;12.34;100.00;101710.19;4183703;28;20032;-73
2023/09/14 04:13:47;;;;;;;6.85;4.78;;;12.90;99.90;;;12.32;100.00;101709.50;4196034;28;20033;-73
2023/09/14 04:15:48;;;;;;;5.63;4.30;;;12.90;99.90;;;12.32;100.00;101706.88;4187138;28;20151;-73
2023/09/14 04:17:49;;;;;;;8.32;4.85;;;12.90;99.90;;;12.31;100.00;101713.13;4187109;28;20025;-73
2023/09/14 04:19:50;;;;;;;7.93;4.85;;;12.90;99.90;;;12.29;100.00;101710.63;4195926;28;20025;-73
2023/09/14 04:21:51;;;;;;;9.13;5.15;;;12.90;99.90;;;12.28;100.00;101713.41;4204652;28;20024;-73
2023/09/14 04:23:52;;;;;;;9.82;6.18;;;12.90;99.90;;;12.26;100.00;101710.91;4189132;28;20029;-73
2023/09/14 04:25:53;;;;;;;7.78;4.93;;;12.90;99.90;;;12.27;100.00;101715.25;4187770;28;20025;-73
2023/09/14 04:27:54;;;;;;;10.57;5.45;;;12.80;99.90;;;12.26;100.00;101705.63;4186642;28;20092;-73
2023/09/14 04:29:55;;;;;;;11.35;5.13;;;12.90;99.90;;;12.26;100.00;101710.09;4187673;28;20032;-73
2023/09/14 04:31:59;;;;;;;8.57;4.65;;;12.80;99.90;;;12.24;100.00;101709.41;4187706;28;20063;-73
2023/09/14 04:34:00;;;;;;;6.63;4.60;;;12.80;99.90;;;12.19;100.00;101697.44;4187792;28;20020;-73
2023/09/14 04:36:05;;;;;;;9.45;5.07;;;12.80;99.90;;;12.19;100.00;101700.06;4197575;28;20511;-73
2023/09/14 04:38:07;;;;;;;10.30;4.82;;;12.80;99.90;;;12.18;100.00;101694.94;4192064;28;20114;-73
2023/09/14 04:40:09;;;;;;;8.45;5.25;;;12.80;99.90;;;12.17;100.00;101699.38;4200878;28;20036;-73
2023/09/14 04:42:10;;;;;;;6.82;5.55;;;12.70;99.90;;;12.12;100.00;101691.06;4187602;28;20025;-73
2023/09/14 04:44:11;;;;;;;7.32;4.40;;;12.80;99.90;;;12.15;100.00;101695.22;4194695;28;20037;-73
2023/09/14 04:46:12;;;;;;;9.13;5.45;;;12.70;99.90;;;12.13;100.00;101691.88;4187567;28;20028;-73
2023/09/14 04:48:13;;;;;;;11.25;5.47;;;12.70;99.90;;;12.11;100.00;101685.91;4187448;28;20044;-73
2023/09/14 04:50:14;;;;;;;8.00;5.15;;;12.70;99.90;;;12.10;100.00;101695.63;4190990;28;20024;-73
2023/09/14 04:52:14;;;;;;;12.30;4.90;;;12.70;99.90;;;12.08;100.00;101687.03;4186512;28;20036;-73
2023/09/14 04:54:15;;;;;;;8.32;5.05;;;12.70;99.90;;;12.06;100.00;101698.72;4198454;28;20430;-73
2023/09/14 04:56:16;;;;;;;6.97;5.05;;;12.70;99.90;;;12.03;100.00;101694.56;4188613;28;20029;-73
2023/09/14 04:58:17;;;;;;;9.00;5.45;;;12.70;99.90;;;12.02;100.00;101694.69;4187682;28;20024;-73
2023/09/14 05:00:18;;;;;;;8.93;5.60;;;12.60;99.90;;;12.03;100.00;101705.13;4195410;28;20063;-73
2023/09/14 05:02:19;;;;;;;9.25;5.55;;;12.60;99.90;;;12.01;100.00;101695.66;4192318;28;20032;-73
2023/09/14 05:04:20;;;;;;;8.10;5.25;;;12.60;99.90;;;12.00;100.00;101699.28;4199876;28;20028;-73
2023/09/14 05:06:20;;;;;;;6.78;5.10;;;12.60;99.90;;;11.98;100.00;101704.72;4189558;28;20028;-73
2023/09/14 05:08:22;;;;;;;10.23;5.40;;;12.60;99.90;;;11.99;100.00;101705.53;4203879;28;20564;-73
2023/09/14 05:10:23;;;;;;;10.27;4.63;;;12.60;99.90;;;11.96;100.00;101704.03;4203881;28;20028;-73
2023/09/14 05:12:25;;;;;;;15.60;5.95;;;12.60;99.90;;;11.95;100.00;101710.28;4202413;28;20105;-73
2023/09/14 05:14:26;;;;;;;8.52;5.38;;;12.60;99.90;;;11.97;100.00;101710.16;4188933;28;20020;-73
2023/09/14 05:16:26;;;;;;;10.00;4.75;;;12.50;99.90;;;11.96;100.00;101709.31;4203811;28;20025;-73
2023/09/14 05:18:27;;;;;;;10.93;5.25;;;12.50;99.90;;;11.93;100.00;101708.75;4203726;28;20415;-73
2023/09/14 05:20:28;;;;;;;10.40;5.43;;;12.50;99.90;;;11.94;100.00;101708.63;4203631;28;20024;-73
2023/09/14 05:22:29;;;;;;;8.50;4.85;;;12.50;99.90;;;11.90;100.00;101709.88;4186293;28;20527;-73
2023/09/14 05:24:30;;;;;;;8.63;5.53;;;12.50;99.90;;;11.90;100.00;101709.88;4192573;28;20033;-73
2023/09/14 05:26:31;;;;;;;10.30;4.65;;;12.60;99.90;;;11.91;100.00;101710.72;4195238;28;20078;-73
2023/09/14 05:28:32;;;;;;;6.15;4.35;;;12.50;99.90;;;11.89;100.00;101713.47;4186750;28;20036;-73
2023/09/14 05:30:33;;;;;;;6.43;4.35;;;12.50;99.90;;;11.85;100.00;101712.13;4185617;28;20024;-73
2023/09/14 05:32:34;;;;;;;6.10;3.75;;;12.50;99.90;;;11.82;100.00;101711.56;4174607;28;20114;-73
2023/09/14 05:34:37;;;;;;;6.38;4.25;;;12.40;99.90;;;11.80;100.00;101713.53;4193562;28;20025;-73
2023/09/14 05:36:37;;;;;;;8.43;4.72;;;12.40;99.90;;;11.80;100.00;101718.81;4189428;28;20032;-73
2023/09/14 05:38:38;;;;;;;5.88;3.95;;;12.40;99.90;;;11.79;100.00;101711.84;4185353;28;20044;-73
2023/09/14 05:40:39;;;;;;;6.55;4.25;;;12.40;99.90;;;11.77;100.00;101709.31;4188588;28;20032;-73
2023/09/14 05:42:41;;;;;;;5.65;4.28;;;12.40;99.90;;;11.76;100.00;101712.97;4194289;28;20021;-73
2023/09/14 05:44:42;;;;;;;5.38;3.20;;;12.40;99.90;;;11.71;100.00;101707.22;4197435;28;20041;-73
2023/09/14 05:46:44;;;;;;;7.43;3.92;;;12.30;99.90;;;11.70;100.00;101716.16;4169607;28;20037;-73
2023/09/14 05:48:44;;;;;;;5.75;3.40;;;12.30;99.90;;;11.68;100.00;101721.53;4186682;28;20116;-73
2023/09/14 05:50:45;;;;;;;5.80;3.65;;;12.30;99.90;;;11.66;100.00;101710.28;4186637;28;20024;-73
2023/09/14 05:52:46;;;;;;;4.93;2.90;;;12.30;99.90;;;11.69;100.00;101714.44;4197546;28;20040;-73
2023/09/14 05:54:47;;;;;;;5.55;2.75;;;12.30;99.90;;;11.61;100.00;101715.16;4186284;28;20029;-73
2023/09/14 05:56:48;;;;;;;4.38;3.22;;;12.30;99.90;;;11.59;100.00;101710.94;4186542;28;20033;-73
2023/09/14 05:58:49;;;;;;;3.90;2.90;;;12.20;99.90;;;11.62;100.00;101721.25;4193617;28;20054;-73
2023/09/14 06:00:50;;;;;;;5.15;2.50;;;12.20;99.90;;;11.61;100.00;101725.72;4186501;28;20028;-73
2023/09/14 06:02:52;;;;;;;4.80;3.22;;;12.20;99.90;;;11.60;100.00;101716.13;4186391;28;20029;-73
2023/09/14 06:04:53;;;;;;;5.88;3.15;;;12.30;99.90;;;11.58;100.00;101719.88;4190051;28;20104;-73
2023/09/14 06:06:54;;;;;;;7.53;3.47;;;12.20;99.90;;;11.57;100.00;101720.84;4186320;28;20032;-73
2023/09/14 06:08:55;;;;;;;6.93;3.33;;;12.20;99.90;;;11.59;100.00;101721.53;4197001;28;20027;-73
2023/09/14 06:10:56;;;;;;;4.20;3.13;;;12.20;99.90;;;11.61;100.00;101725.72;4192897;28;20480;-73
2023/09/14 06:12:57;;;;;;;5.13;3.42;;;12.20;99.90;;;11.66;100.00;101722.66;4189711;28;20028;-72
2023/09/14 06:14:58;;;;;;;3.80;2.97;;;12.30;99.90;;;11.66;100.00;101725.28;4186006;28;20029;-73
2023/09/14 06:16:59;;;;;;;4.05;2.80;;;12.30;99.90;;;11.64;100.00;101725.44;4186223;28;20025;-73
2023/09/14 06:19:00;;;;;;;7.05;3.38;;;12.30;99.90;;;11.61;100.00;101719.59;4199155;28;20021;-73
2023/09/14 06:21:01;;;;;;;4.45;3.13;;;12.30;99.90;;;11.61;100.00;101719.59;4197337;28;20033;-73
2023/09/14 06:23:02;;;;;;;4.28;2.92;;;12.30;99.90;;;11.66;100.00;101722.66;4193785;28;20016;-72
2023/09/14 06:25:03;;;;;;;5.55;2.85;;;12.30;99.90;;;11.68;100.00;101725.19;4202551;28;20036;-73
2023/09/14 06:27:05;;;;;;;6.30;3.80;;;12.30;99.90;;;11.71;100.00;101728.38;4187272;28;20053;-73
2023/09/14 06:29:05;;;;;;;5.15;3.15;;;12.30;99.90;;;11.75;100.00;101736.88;4192242;28;20021;-73
2023/09/14 06:31:06;;;;;;;5.72;3.55;;;12.30;99.90;;;11.78;100.00;101729.50;4188287;28;20051;-73
2023/09/14 06:33:07;;;;;;;5.72;2.97;;;12.40;99.90;;;11.84;100.00;101746.59;4185928;28;20122;-73
2023/09/14 06:35:09;;;;;;;4.97;2.90;;;12.40;99.90;;;11.87;100.00;101739.25;4189035;28;20036;-73
2023/09/14 06:37:10;;;;;;;6.05;4.18;;;12.50;99.90;;;11.91;100.00;101737.16;4185859;28;20029;-73
2023/09/14 06:39:12;;;;;;;6.03;4.13;;;12.50;99.90;;;12.02;100.00;101744.94;4200432;28;20076;-73
2023/09/14 06:41:15;;;;;;;5.72;3.90;;;12.60;99.90;;;12.05;100.00;101734.06;4201698;28;20573;-73
2023/09/14 06:43:16;;;;;;;6.97;4.40;;;12.70;99.90;;;12.14;100.00;101743.81;4202096;28;20531;-73
2023/09/14 06:45:17;;;;;;;6.70;4.65;;;12.70;99.90;;;12.20;100.00;101738.78;4184079;28;20029;-73
2023/09/14 06:47:18;;;;;;;9.32;5.63;;;12.80;99.90;;;12.29;100.00;101746.84;4191604;28;20025;-73
2023/09/14 06:49:19;;;;;;;8.70;6.00;;;12.80;99.90;;;12.37;100.00;101742.50;4191690;28;20021;-72
2023/09/14 06:51:20;;;;;;;9.45;5.90;;;12.90;99.90;;;12.42;100.00;101742.09;4190112;28;20924;-73
2023/09/14 06:53:21;;;;;;;11.35;6.93;;;13.00;99.90;;;12.49;100.00;101746.63;4206658;28;20029;-72
2023/09/14 06:55:22;;;;;;;11.30;6.47;;;13.10;99.90;;;12.55;100.00;101753.16;4194882;28;20044;-72
2023/09/14 06:57:23;;;;;;;8.63;5.68;;;13.10;99.90;;;12.62;100.00;101754.28;4185590;28;20044;-72
2023/09/14 06:59:24;;;;;;;7.88;6.07;;;13.20;99.90;;;12.65;100.00;101753.97;4195887;28;20081;-72
2023/09/14 07:01:25;;;;;;;10.05;6.78;;;13.20;99.90;;;12.68;100.00;101759.00;4184290;28;20122;-72
2023/09/14 07:03:26;;;;;;;9.52;5.88;;;13.30;99.90;;;12.69;100.00;101758.81;4185547;28;20028;-73
2023/09/14 07:05:27;;;;;;;9.40;6.10;;;13.30;99.90;;;12.70;100.00;101757.84;4185554;28;20025;-72
2023/09/14 07:07:28;;;;;;;11.68;6.03;;;13.30;99.90;;;12.72;100.00;101755.88;4185450;28;20025;-72
2023/09/14 07:09:28;;;;;;;9.63;6.60;;;13.30;99.90;;;12.74;100.00;101755.75;4200009;28;20032;-72
2023/09/14 07:11:29;;;;;;;8.65;6.47;;;13.40;99.90;;;12.75;100.00;101760.09;4185668;28;20032;-73
2023/09/14 07:13:30;;;;;;;7.13;6.03;;;13.40;99.90;;;12.76;100.00;101759.09;4192836;28;20028;-72
2023/09/14 07:15:31;;;;;;;9.75;6.57;;;13.40;99.90;;;12.78;100.00;101760.59;4189276;28;20435;-72
2023/09/14 07:17:32;;;;;;;9.35;6.10;;;13.40;99.90;;;12.80;100.00;101763.13;4185193;28;20021;-73
2023/09/14 07:19:33;;;;;;;10.32;5.65;;;13.40;99.90;;;12.82;100.00;101761.16;4185320;28;20036;-72
2023/09/14 07:21:37;;;;;;;8.57;5.47;;;13.40;99.90;;;12.84;100.00;101764.50;4192422;28;20017;-72
2023/09/14 07:23:38;;;;;;;9.93;5.00;;;13.50;99.90;;;12.85;100.00;101755.56;4185412;28;20029;-72
2023/09/14 07:25:39;;;;;;;7.82;5.30;;;13.50;99.90;;;12.86;100.00;101751.94;4199136;28;20079;-72
2023/09/14 07:27:40;;;;;;;8.30;5.22;;;13.50;99.90;;;12.87;100.00;101756.28;4184130;28;20390;-72
2023/09/14 07:29:41;;;;;;;7.20;5.40;;;13.50;99.90;;;12.92;100.00;101763.75;4193408;28;20043;-72
2023/09/14 07:31:42;;;;;;;7.43;5.95;;;13.50;99.90;;;12.95;100.00;101763.47;4200829;28;20028;-72
2023/09/14 07:33:46;;;;;;;5.60;4.35;;;13.60;99.90;;;12.94;100.00;101749.41;4186351;28;20025;-72
2023/09/14 07:35:47;;;;;;;7.25;5.22;;;13.60;99.90;;;12.97;100.00;101758.84;4188674;28;20029;-72
2023/09/14 07:37:48;;;;;;;10.57;5.78;;;13.60;99.90;;;12.96;100.00;101755.38;4184956;28;20052;-72
2023/09/14 07:39:48;;;;;;;6.53;5.07;;;13.60;99.90;;;12.98;100.00;101761.38;4185078;28;20396;-72
2023/09/14 07:41:55;;;;;;;7.53;5.22;;;13.60;99.90;;;12.99;100.00;101749.78;4184814;28;20025;-72
2023/09/14 07:43:56;;;;;;;8.68;6.55;;;13.60;99.90;;;13.01;100.00;101755.78;4190686;28;20082;-73
2023/09/14 07:45:57;;;;;;;8.00;5.68;;;13.60;99.90;;;13.04;100.00;101755.50;4201701;28;20020;-73
2023/09/14 07:47:57;;;;;;;6.55;5.32;;;13.70;99.90;;;13.10;100.00;101751.44;4189284;28;20021;-72
2023/09/14 07:49:58;;;;;;;8.38;5.57;;;13.70;99.90;;;13.16;100.00;101751.69;4185390;28;20443;-73
2023/09/14 07:51:59;;;;;;;14.23;5.97;;;13.80;99.90;;;13.20;100.00;101745.09;4192917;28;20415;-72
2023/09/14 07:54:00;;;;;;;7.35;5.88;;;13.80;99.90;;;13.27;100.00;101740.88;4187339;28;20021;-72
2023/09/14 07:56:01;;;;;;;9.40;5.88;;;13.90;99.90;;;13.36;100.00;101740.97;4200284;28;20043;-72
2023/09/14 07:58:02;;;;;;;7.53;5.80;;;14.00;99.90;;;13.42;100.00;101737.72;4203518;28;20031;-72
2023/09/14 08:00:04;;;;;;;10.65;6.07;;;14.10;99.90;;;13.52;100.00;101749.94;4204750;28;20028;-72
2023/09/14 08:02:07;;;;;;;11.55;6.38;;;14.20;99.90;;;13.62;100.00;101741.91;4205099;28;20025;-72
2023/09/14 08:04:08;;;;;;;13.52;6.10;;;14.30;99.90;;;13.70;100.00;101741.97;4191875;28;20033;-72
2023/09/14 08:06:09;;;;;;;7.45;5.80;;;14.30;99.90;;;13.79;100.00;101741.06;4188277;28;20538;-72
2023/09/14 08:08:10;;;;;;;14.00;6.50;;;14.40;99.90;;;13.85;100.00;101745.75;4192200;28;20021;-71
2023/09/14 08:10:11;;;;;;;9.30;6.05;;;14.50;99.90;;;13.96;100.00;101750.81;4187142;28;20025;-72
2023/09/14 08:12:12;;;;;;;8.13;5.93;;;14.60;99.90;;;14.06;100.00;101753.41;4199722;28;20033;-72
2023/09/14 08:14:13;;;;;;;9.20;5.32;;;14.70;99.90;;;14.10;100.00;101750.25;4189522;28;20029;-72
2023/09/14 08:16:14;;;;;;;8.15;5.32;;;14.80;99.90;;;14.20;100.00;101753.66;4188157;28;20103;-72
2023/09/14 08:18:14;;;;;;;6.47;5.15;;;14.80;99.90;;;14.28;100.00;101752.88;4188351;28;20024;-72
2023/09/14 08:20:15;;;;;;;12.15;5.90;;;14.90;99.90;;;14.38;100.00;101749.19;4198196;28;20028;-72